Time;durP1;ratioP1;P1;durP2;ratioP2;P2;SDS_P1;SDS_P2;PMS_P1;PMS_P2;Temp;Humidity;BMP_temperature;BMP_pressure;BME280_temperature;BME280_humidity;BME280_pressure;Samples;Min_cycle;Max_cycle;Signal;HPM_P1;HPM_P2
2023/07/17 00:00:28;;;;;;;;;11.00;11.00;;;;;20.10;100.00;98483.88;4947578;28;102569;-75
2023/07/17 00:03:00;;;;;;;;;11.00;11.00;;;;;19.96;100.00;98485.44;4955868;28;103323;-75
2023/07/17 00:05:27;;;;;;;;;9.67;9.67;;;;;19.91;100.00;98479.91;4954071;28;103458;-75
2023/07/17 00:07:54;;;;;;;;;12.00;12.00;;;;;19.88;100.00;98483.19;4955724;28;102108;-75
2023/07/17 00:10:22;;;;;;;;;11.00;9.00;;;;;19.82;100.00;98486.97;4956627;28;102136;-75
2023/07/17 00:12:49;;;;;;;;;7.33;7.33;;;;;19.83;100.00;98481.22;4958596;28;103734;-75
2023/07/17 00:15:16;;;;;;;;;7.00;7.00;;;;;19.85;100.00;98483.72;4955901;28;103999;-75
2023/07/17 00:17:43;;;;;;;;;5.67;4.67;;;;;19.80;100.00;98467.22;4955058;27;102011;-75
2023/07/17 00:20:11;;;;;;;;;5.33;5.33;;;;;19.81;100.00;98480.66;4966166;28;101994;-75
2023/07/17 00:22:39;;;;;;;;;6.67;5.33;;;;;19.82;100.00;98468.59;4956077;28;102029;-75
2023/07/17 00:25:06;;;;;;;;;3.67;3.67;;;;;19.88;100.00;98470.28;4958280;28;109195;-75
2023/07/17 00:27:35;;;;;;;;;4.67;4.33;;;;;19.91;100.00;98471.66;4952867;28;103135;-75
2023/07/17 00:30:03;;;;;;;;;5.00;5.00;;;;;19.87;100.00;98460.41;4947208;28;103500;-75
2023/07/17 00:32:30;;;;;;;;;3.00;3.00;;;;;19.91;100.00;98469.75;4949488;27;108076;-75
2023/07/17 00:34:58;;;;;;;;;3.33;3.33;;;;;19.81;100.00;98474.38;4956744;28;104070;-75
2023/07/17 00:37:25;;;;;;;;;8.00;7.33;;;;;19.65;100.00;98467.91;4959446;28;103231;-75
2023/07/17 00:39:52;;;;;;;;;6.00;6.00;;;;;19.56;100.00;98473.06;4956063;28;102402;-75
2023/07/17 00:42:19;;;;;;;;;4.00;3.33;;;;;19.47;100.00;98469.16;4962044;28;102012;-75
2023/07/17 00:44:46;;;;;;;;;6.33;6.00;;;;;19.40;100.00;98459.47;4953371;28;104196;-75
2023/07/17 00:47:13;;;;;;;;;8.00;7.67;;;;;19.40;100.00;98460.31;4957232;28;102041;-75
2023/07/17 00:49:41;;;;;;;;;8.00;7.00;;;;;19.31;100.00;98442.66;4953680;28;102330;-75
2023/07/17 00:52:10;;;;;;;;;9.00;9.00;;;;;19.43;100.00;98454.31;4956453;28;102331;-75
2023/07/17 00:54:41;;;;;;;;;10.00;9.33;;;;;19.34;100.00;98430.34;4950495;28;108845;-75
2023/07/17 00:57:11;;;;;;;;;8.00;7.00;;;;;19.47;100.00;98446.38;4950698;28;103629;-75
2023/07/17 00:59:39;;;;;;;;;5.00;4.33;;;;;19.59;100.00;98463.47;4945447;28;103701;-75
2023/07/17 01:02:08;;;;;;;;;7.00;6.00;;;;;19.60;100.00;98456.91;4960877;28;102108;-75
2023/07/17 01:04:37;;;;;;;;;9.67;8.67;;;;;19.57;100.00;98454.69;4960125;28;104166;-75
2023/07/17 01:07:13;;;;;;;;;11.67;9.67;;;;;19.63;100.00;98456.41;4957850;28;102990;-75
2023/07/17 01:09:59;;;;;;;;;9.00;8.33;;;;;19.64;100.00;98451.72;4953847;27;103421;-75
2023/07/17 01:12:45;;;;;;;;;8.33;8.33;;;;;19.70;100.00;98456.16;4965827;27;102362;-75
2023/07/17 01:15:30;;;;;;;;;7.33;7.33;;;;;19.78;100.00;98469.38;4961902;28;108630;-75
2023/07/17 01:18:16;;;;;;;;;6.33;6.33;;;;;19.80;100.00;98462.56;4964174;27;102027;-76
2023/07/17 01:20:53;;;;;;;;;5.33;5.33;;;;;19.84;100.00;98460.94;4964151;28;101864;-76
2023/07/17 01:23:20;;;;;;;;;9.00;9.00;;;;;19.85;100.00;98459.84;4966743;27;102055;-75
2023/07/17 01:25:47;;;;;;;;;7.50;7.00;;;;;19.91;100.00;98455.19;4966283;27;104091;-75
2023/07/17 01:28:14;;;;;;;;;6.67;6.67;;;;;19.98;100.00;98458.56;4962571;28;102319;-74
2023/07/17 01:30:41;;;;;;;;;8.33;7.33;;;;;19.96;100.00;98449.75;4971437;27;103280;-75
2023/07/17 01:33:08;;;;;;;;;2.67;2.67;;;;;20.09;100.00;98460.25;4961117;28;102169;-75
2023/07/17 01:35:35;;;;;;;;;6.67;6.00;;;;;20.14;100.00;98463.03;4965313;27;104464;-75
2023/07/17 01:38:03;;;;;;;;;10.00;10.00;;;;;20.14;100.00;98459.47;4955792;28;105597;-74
2023/07/17 01:40:30;;;;;;;;;6.67;6.67;;;;;20.19;100.00;98471.31;4953176;27;102007;-75
2023/07/17 01:42:57;;;;;;;;;7.67;6.67;;;;;20.18;100.00;98475.13;4955685;28;102092;-75
2023/07/17 01:45:24;;;;;;;;;7.33;6.67;;;;;20.16;100.00;98469.09;4955571;27;104010;-75
2023/07/17 01:47:51;;;;;;;;;6.33;6.33;;;;;20.18;100.00;98468.81;4959377;28;102246;-74
2023/07/17 01:50:18;;;;;;;;;7.00;5.67;;;;;20.18;100.00;98468.81;4960377;28;110528;-74
2023/07/17 01:52:45;;;;;;;;;6.33;6.33;;;;;20.16;100.00;98474.59;4957618;28;102370;-74
2023/07/17 01:55:12;;;;;;;;;6.00;5.67;;;;;20.18;100.00;98477.88;4958314;28;104112;-75
2023/07/17 01:57:39;;;;;;;;;7.67;7.67;;;;;20.18;100.00;98471.56;4964426;28;101971;-75
2023/07/17 02:00:07;;;;;;;;;5.00;5.00;;;;;20.03;100.00;98439.38;4957582;28;103041;-75
2023/07/17 02:02:34;;;;;;;;;4.67;4.67;;;;;20.14;100.00;98456.72;4960341;27;107358;-74
2023/07/17 02:05:01;;;;;;;;;6.33;6.00;;;;;20.15;100.00;98452.88;4959176;28;104340;-75
2023/07/17 02:07:28;;;;;;;;;12.00;11.33;;;;;20.09;100.00;98448.44;4961823;27;102282;-75
2023/07/17 02:09:55;;;;;;;;;15.00;13.67;;;;;20.06;100.00;98449.81;4956209;28;102069;-75
2023/07/17 02:12:23;;;;;;;;;12.67;12.67;;;;;20.00;100.00;98440.72;4958132;27;102077;-75
2023/07/17 02:14:51;;;;;;;;;9.67;9.67;;;;;20.00;100.00;98446.22;4964119;28;104092;-75
2023/07/17 02:17:18;;;;;;;;;18.67;17.67;;;;;20.01;100.00;98438.81;4956173;28;104372;-75
2023/07/17 02:19:45;;;;;;;;;22.00;21.33;;;;;19.99;100.00;98428.06;4964859;27;102223;-75
2023/07/17 02:22:12;;;;;;;;;15.67;15.67;;;;;20.10;100.00;98439.13;4964758;28;101815;-75
2023/07/17 02:24:39;;;;;;;;;12.00;11.33;;;;;20.15;100.00;98448.22;4971176;28;108756;-75
2023/07/17 02:27:07;;;;;;;;;8.67;7.67;;;;;20.12;100.00;98437.78;4963826;27;101952;-75
2023/07/17 02:29:34;;;;;;;;;10.33;9.00;;;;;20.14;100.00;98452.06;4963024;28;102145;-75
2023/07/17 02:32:01;;;;;;;;;6.33;6.33;;;;;20.22;100.00;98467.22;4966012;28;102373;-75
2023/07/17 02:34:28;;;;;;;;;11.00;9.67;;;;;20.22;100.00;98479.00;4964852;27;104280;-75
2023/07/17 02:36:55;;;;;;;;;13.00;12.00;;;;;20.18;100.00;98480.63;4966403;28;102152;-74
2023/07/17 02:39:22;;;;;;;;;9.67;9.67;;;;;20.24;100.00;98487.81;4961616;28;102655;-75
2023/07/17 02:41:49;;;;;;;;;8.67;8.67;;;;;20.30;100.00;98483.22;4968115;28;102137;-75
2023/07/17 02:44:17;;;;;;;;;7.67;7.00;;;;;20.36;100.00;98482.13;4960807;28;104043;-75
2023/07/17 02:46:44;;;;;;;;;7.33;7.00;;;;;20.40;100.00;98489.56;4971121;27;102016;-74
2023/07/17 02:49:13;;;;;;;;;4.67;4.67;;;;;20.36;100.00;98468.38;4963783;28;101998;-75
2023/07/17 02:51:41;;;;;;;;;11.00;11.00;;;;;20.40;100.00;98473.09;4965471;28;102350;-76
2023/07/17 02:54:08;;;;;;;;;11.67;11.67;;;;;20.36;100.00;98471.97;4954486;28;103706;-75
2023/07/17 02:56:35;;;;;;;;;7.67;7.67;;;;;20.35;100.00;98472.25;4953695;27;102991;-75
2023/07/17 02:59:03;;;;;;;;;7.00;6.00;;;;;20.33;100.00;98467.03;4956515;28;102124;-75
2023/07/17 03:01:30;;;;;;;;;9.00;8.33;;;;;20.11;100.00;98435.28;4953004;28;102133;-75
2023/07/17 03:03:57;;;;;;;;;6.00;6.00;;;;;20.12;100.00;98431.47;4962130;27;104072;-74
2023/07/17 03:06:24;;;;;;;;;7.00;7.00;;;;;20.31;100.00;98466.44;4955289;28;101878;-75
2023/07/17 03:08:51;;;;;;;;;4.67;4.67;;;;;20.31;100.00;98458.22;4957989;28;102346;-74
2023/07/17 03:11:18;;;;;;;;;5.67;5.67;;;;;20.26;100.00;98460.88;4961875;27;102014;-74
2023/07/17 03:13:46;;;;;;;;;8.33;8.33;;;;;20.23;100.00;98458.69;4960190;28;103973;-75
2023/07/17 03:16:13;;;;;;;;;7.33;7.33;;;;;20.25;100.00;98456.53;4963462;28;102025;-75
2023/07/17 03:18:40;;;;;;;;;8.00;7.00;;;;;20.25;100.00;98458.44;4954568;28;101918;-75
2023/07/17 03:21:07;;;;;;;;;5.00;4.00;;;;;20.32;100.00;98465.34;4951946;28;102385;-75
2023/07/17 03:23:34;;;;;;;;;4.67;4.00;;;;;20.20;100.00;98440.00;4961982;27;104019;-75
2023/07/17 03:26:01;;;;;;;;;5.00;4.33;;;;;20.36;100.00;98471.97;4943591;28;102336;-74
2023/07/17 03:28:28;;;;;;;;;3.67;3.67;;;;;20.39;100.00;98471.47;4958061;28;102543;-75
2023/07/17 03:30:56;;;;;;;;;2.67;2.67;;;;;20.48;100.00;98497.31;4953274;28;102351;-75
2023/07/17 03:33:23;;;;;;;;;11.00;8.00;;;;;20.43;100.00;98491.78;4957948;27;104085;-75
2023/07/17 03:35:50;;;;;;;;;5.67;5.67;;;;;20.36;100.00;98488.44;4956965;27;102361;-75
2023/07/17 03:38:17;;;;;;;;;12.33;11.00;;;;;20.33;100.00;98499.97;4956593;28;102117;-75
2023/07/17 03:40:44;;;;;;;;;17.67;15.33;;;;;20.20;100.00;98505.91;4955533;27;102174;-75
2023/07/17 03:43:11;;;;;;;;;21.33;20.33;;;;;20.09;100.00;98509.66;4955990;28;108901;-75
2023/07/17 03:45:38;;;;;;;;;16.33;15.00;;;;;20.07;100.00;98508.28;4958359;27;102300;-75
2023/07/17 03:48:05;;;;;;;;;16.67;16.00;;;;;20.16;100.00;98514.94;4962693;27;102468;-75
2023/07/17 03:50:33;;;;;;;;;15.67;13.67;;;;;20.23;100.00;98521.84;4956011;28;102463;-74
2023/07/17 03:53:00;;;;;;;;;11.00;10.67;;;;;20.33;100.00;98519.19;4960430;28;104457;-75
2023/07/17 03:55:27;;;;;;;;;15.67;14.67;;;;;20.31;100.00;98523.28;4957406;28;102322;-75
2023/07/17 03:57:54;;;;;;;;;15.67;14.33;;;;;20.18;100.00;98513.56;4955609;28;102883;-74
2023/07/17 04:00:21;;;;;;;;;9.67;9.67;;;;;20.18;100.00;98512.75;4954734;28;102776;-74
2023/07/17 04:02:48;;;;;;;;;13.00;11.67;;;;;20.24;100.00;98512.53;4957763;28;104057;-74
2023/07/17 04:05:15;;;;;;;;;8.00;8.00;;;;;20.22;100.00;98520.19;4960668;28;102395;-75
2023/07/17 04:07:42;;;;;;;;;12.33;10.33;;;;;20.22;100.00;98524.88;4957729;28;102238;-74
2023/07/17 04:10:09;;;;;;;;;15.00;14.00;;;;;20.20;100.00;98521.56;4958529;28;102037;-74
2023/07/17 04:12:36;;;;;;;;;16.33;14.00;;;;;20.15;100.00;98525.09;4956508;27;104034;-75
2023/07/17 04:15:04;;;;;;;;;13.00;13.00;;;;;20.17;100.00;98522.94;4960889;28;102027;-74
2023/07/17 04:17:31;;;;;;;;;12.00;12.00;;;;;20.21;100.00;98521.31;4954709;28;102095;-75
2023/07/17 04:19:58;;;;;;;;;14.67;13.33;;;;;20.25;100.00;98514.19;4956174;28;102627;-75
2023/07/17 04:22:25;;;;;;;;;15.00;13.67;;;;;20.17;100.00;98511.94;4956731;27;103986;-75
2023/07/17 04:24:52;;;;;;;;;22.67;20.00;;;;;20.22;100.00;98503.72;4959171;27;102505;-75
2023/07/17 04:27:19;;;;;;;;;16.00;15.00;;;;;20.31;100.00;98507.63;4954971;28;102510;-75
2023/07/17 04:29:48;;;;;;;;;12.33;12.33;;;;;20.26;100.00;98493.03;4971280;22;102545;-82
2023/07/17 04:32:15;;;;;;;;;15.33;13.00;;;;;20.40;100.00;98505.22;4943013;28;109042;-81
2023/07/17 04:34:42;;;;;;;;;12.67;12.67;;;;;20.35;100.00;98499.72;4961612;28;102034;-82
2023/07/17 04:37:10;;;;;;;;;13.67;12.67;;;;;20.42;100.00;98503.88;4963663;28;102435;-82
2023/07/17 04:39:37;;;;;;;;;12.33;11.67;;;;;20.32;100.00;98481.84;4965413;28;102047;-82
2023/07/17 04:42:04;;;;;;;;;12.67;11.67;;;;;20.50;100.00;98516.25;4934914;28;105698;-83
2023/07/17 04:44:31;;;;;;;;;13.00;12.00;;;;;20.56;100.00;98514.38;4956747;28;102016;-81
2023/07/17 04:46:58;;;;;;;;;8.33;8.33;;;;;20.61;100.00;98522.63;4966285;28;102458;-82
2023/07/17 04:49:26;;;;;;;;;16.67;16.67;;;;;20.65;100.00;98515.50;4965569;28;102592;-81
2023/07/17 04:51:53;;;;;;;;;18.00;16.33;;;;;20.69;100.00;98520.19;4963124;28;104223;-81
2023/07/17 04:54:21;;;;;;;;;17.00;17.00;;;;;20.73;100.00;98515.00;4967319;28;103536;-80
2023/07/17 04:56:48;;;;;;;;;24.33;22.67;;;;;20.81;100.00;98528.22;4970616;28;102685;-81
2023/07/17 04:59:16;;;;;;;;;13.00;12.67;;;;;20.74;100.00;98517.47;4967919;28;102262;-81
2023/07/17 05:01:43;;;;;;;;;15.00;14.33;;;;;20.69;100.00;98517.47;4945962;28;103949;-81
2023/07/17 05:04:10;;;;;;;;;12.67;12.33;;;;;20.65;100.00;98513.59;4965774;28;102400;-83
2023/07/17 05:06:37;;;;;;;;;10.33;10.33;;;;;20.70;100.00;98543.00;4967976;28;102187;-81
2023/07/17 05:09:05;;;;;;;;;9.67;9.67;;;;;20.74;100.00;98582.59;4970330;28;102050;-80
2023/07/17 05:11:32;;;;;;;;;18.00;18.00;;;;;20.63;100.00;98655.91;4960784;28;103998;-82
2023/07/17 05:14:01;;;;;;;;;26.75;22.75;;;;;20.58;100.00;98710.81;4964373;28;102072;-80
2023/07/17 05:16:28;;;;;;;;;30.00;29.50;;;;;20.53;100.00;98748.41;4967392;28;102605;-84
2023/07/17 05:18:55;;;;;;;;;21.00;20.00;;;;;20.44;100.00;98786.53;4967131;28;102316;-82
2023/07/17 05:21:33;;;;;;;;;19.67;18.67;;;;;19.81;100.00;98792.66;4952853;28;103456;-86
2023/07/17 05:24:01;;;;;;;;;14.00;14.00;;;;;19.44;100.00;98759.56;4960976;28;104208;-76
2023/07/17 05:26:28;;;;;;;;;13.67;12.67;;;;;19.31;100.00;98738.78;4941621;28;102129;-76
2023/07/17 05:28:56;;;;;;;;;13.33;10.33;;;;;19.20;100.00;98704.09;4953664;28;102002;-77
2023/07/17 05:31:24;;;;;;;;;9.00;8.33;;;;;19.28;100.00;98717.34;4961968;28;105872;-79
2023/07/17 05:33:52;;;;;;;;;7.00;7.00;;;;;19.30;100.00;98747.25;4957051;28;102432;-78
2023/07/17 05:36:19;;;;;;;;;5.00;4.00;;;;;19.35;100.00;98745.41;4945402;28;101993;-80
2023/07/17 05:38:46;;;;;;;;;6.67;6.33;;;;;19.37;100.00;98735.00;4959052;28;102119;-76
2023/07/17 05:41:13;;;;;;;;;5.33;4.00;;;;;19.41;100.00;98733.41;4962808;28;103793;-77
2023/07/17 05:43:40;;;;;;;;;5.00;5.00;;;;;19.45;100.00;98723.63;4957453;28;102206;-77
2023/07/17 05:46:10;;;;;;;;;5.33;5.00;;;;;19.43;100.00;98725.81;4959317;28;102454;-77
2023/07/17 05:48:38;;;;;;;;;7.00;7.00;;;;;19.44;100.00;98722.00;4961785;28;102084;-76
2023/07/17 05:51:08;;;;;;;;;9.00;9.00;;;;;19.42;100.00;98693.94;4942056;28;103169;-76
2023/07/17 05:53:36;;;;;;;;;10.67;10.67;;;;;19.41;100.00;98677.72;4944150;28;102242;-77
2023/07/17 05:56:03;;;;;;;;;16.67;14.00;;;;;19.38;100.00;98646.19;4941311;28;102580;-76
2023/07/17 05:58:32;;;;;;;;;13.00;13.00;;;;;19.37;100.00;98617.09;4957837;28;102265;-76
2023/07/17 06:00:59;;;;;;;;;7.00;7.00;;;;;19.41;100.00;98611.91;4959168;28;104008;-76
2023/07/17 06:03:26;;;;;;;;;8.33;7.00;;;;;19.43;100.00;98620.72;4960528;28;103050;-76
2023/07/17 06:05:53;;;;;;;;;14.00;14.00;;;;;19.35;100.00;98611.06;4953679;28;102371;-77
2023/07/17 06:08:20;;;;;;;;;13.00;11.33;;;;;19.32;100.00;98606.06;4967810;28;102041;-78
2023/07/17 06:10:49;;;;;;;;;16.00;16.00;;;;;19.36;100.00;98617.38;4956962;28;108513;-78
2023/07/17 06:13:16;;;;;;;;;13.33;13.00;;;;;19.38;100.00;98617.94;4965877;28;102662;-78
2023/07/17 06:15:43;;;;;;;;;11.00;10.00;;;;;19.42;100.00;98616.31;4955682;28;101990;-78
2023/07/17 06:18:10;;;;;;;;;6.00;6.00;;;;;19.46;100.00;98588.16;4963556;28;102489;-79
2023/07/17 06:20:38;;;;;;;;;10.67;9.00;;;;;19.52;100.00;98597.28;4956984;28;103723;-79
2023/07/17 06:23:05;;;;;;;;;7.00;7.00;;;;;19.59;100.00;98601.47;4960285;28;102347;-79
2023/07/17 06:25:34;;;;;;;;;7.33;7.33;;;;;19.63;100.00;98587.25;4965072;28;102227;-79
2023/07/17 06:28:01;;;;;;;;;9.67;9.00;;;;;19.60;100.00;98566.63;4958572;28;102068;-80
2023/07/17 06:30:28;;;;;;;;;11.00;11.00;;;;;19.61;100.00;98554.56;4955215;28;103973;-78
2023/07/17 06:32:55;;;;;;;;;11.33;11.33;;;;;19.60;100.00;98556.50;4958250;28;103153;-81
2023/07/17 06:35:21;;;;;;;;;19.00;16.67;;;;;19.41;100.00;98519.50;4962021;28;101865;-81
2023/07/17 06:37:48;;;;;;;;;9.33;9.00;;;;;19.63;100.00;98546.94;4961924;28;102042;-80
2023/07/17 06:40:15;;;;;;;;;12.00;11.33;;;;;19.73;100.00;98532.44;4963089;28;107931;-78
2023/07/17 06:42:43;;;;;;;;;15.00;14.33;;;;;19.82;100.00;98525.38;4962504;28;102504;-81
2023/07/17 06:45:11;;;;;;;;;11.67;11.67;;;;;19.94;100.00;98512.31;4958744;28;102079;-81
2023/07/17 06:47:38;;;;;;;;;15.00;11.67;;;;;19.91;100.00;98510.09;4960635;28;101931;-80
2023/07/17 06:50:05;;;;;;;;;9.67;8.00;;;;;19.94;100.00;98499.44;4958411;28;104337;-80
2023/07/17 06:52:32;;;;;;;;;6.67;5.00;;;;;20.00;100.00;98501.09;4959667;28;103255;-80
2023/07/17 06:54:59;;;;;;;;;9.00;7.33;;;;;20.02;100.00;98509.09;4955251;28;102314;-79
2023/07/17 06:57:32;;;;;;;;;7.33;6.33;;;;;20.06;100.00;98507.47;4960357;28;102367;-79
2023/07/17 06:59:59;;;;;;;;;8.00;8.00;;;;;19.94;100.00;98506.84;4957341;28;104000;-79
2023/07/17 07:02:26;;;;;;;;;5.33;5.33;;;;;20.07;100.00;98522.84;4939982;28;102359;-79
2023/07/17 07:04:53;;;;;;;;;5.00;5.00;;;;;20.10;100.00;98526.97;4957149;28;102149;-79
2023/07/17 07:07:20;;;;;;;;;5.67;4.00;;;;;20.12;100.00;98533.88;4959475;28;102426;-80
2023/07/17 07:09:47;;;;;;;;;5.67;4.33;;;;;20.07;100.00;98542.06;4963833;28;108683;-78
2023/07/17 07:12:14;;;;;;;;;6.67;5.67;;;;;20.01;100.00;98541.19;4957628;28;102095;-79
2023/07/17 07:14:42;;;;;;;;;3.33;3.33;;;;;19.95;100.00;98530.44;4965767;28;102256;-79
2023/07/17 07:17:09;;;;;;;;;5.67;5.67;;;;;19.98;100.00;98529.91;4956637;28;102030;-79
2023/07/17 07:19:36;;;;;;;;;3.00;2.67;;;;;19.97;100.00;98529.09;4957864;28;104171;-79
2023/07/17 07:22:04;;;;;;;;;4.00;3.33;;;;;20.05;100.00;98549.72;4953928;28;102444;-78
2023/07/17 07:24:31;;;;;;;;;5.33;5.33;;;;;20.15;100.00;98557.22;4959516;28;102319;-79
2023/07/17 07:26:58;;;;;;;;;4.33;4.33;;;;;20.15;100.00;98560.78;4958162;28;102014;-79
2023/07/17 07:29:25;;;;;;;;;5.00;4.33;;;;;20.21;100.00;98567.97;4958657;28;105025;-79
2023/07/17 07:31:52;;;;;;;;;5.00;4.67;;;;;20.10;100.00;98568.97;4960182;28;102403;-79
2023/07/17 07:34:19;;;;;;;;;2.00;2.00;;;;;20.04;100.00;98548.06;4959725;28;101948;-78
2023/07/17 07:36:46;;;;;;;;;3.00;3.00;;;;;20.16;100.00;98554.22;4963301;28;102344;-78
2023/07/17 07:39:13;;;;;;;;;3.33;3.33;;;;;20.20;100.00;98558.06;4956337;28;104023;-78
2023/07/17 07:41:40;;;;;;;;;3.33;3.33;;;;;20.15;100.00;98555.28;4963671;28;102397;-79
2023/07/17 07:44:10;;;;;;;;;2.67;2.67;;;;;20.14;100.00;98553.63;4951522;28;102928;-78
2023/07/17 07:46:39;;;;;;;;;2.00;1.67;;;;;20.27;100.00;98561.41;4961281;28;102185;-78
2023/07/17 07:49:06;;;;;;;;;1.67;1.67;;;;;20.30;100.00;98565.59;4955815;28;104179;-78
2023/07/17 07:51:33;;;;;;;;;1.33;1.33;;;;;20.35;100.00;98562.88;4958773;28;101997;-78
2023/07/17 07:54:00;;;;;;;;;3.00;3.00;;;;;20.39;100.00;98584.06;4961015;28;102559;-79
2023/07/17 07:56:27;;;;;;;;;1.67;1.67;;;;;20.40;100.00;98588.44;4959296;28;102075;-79
2023/07/17 07:58:54;;;;;;;;;2.00;2.00;;;;;20.44;100.00;98608.00;4955249;28;103639;-79
2023/07/17 08:01:20;;;;;;;;;2.67;2.67;;;;;20.47;100.00;98605.53;4958225;28;103946;-80
2023/07/17 08:03:47;;;;;;;;;3.00;3.00;;;;;20.45;100.00;98613.19;4965629;28;102422;-79
2023/07/17 08:06:15;;;;;;;;;3.00;3.00;;;;;20.46;100.00;98603.88;4958414;28;102257;-79
2023/07/17 08:08:42;;;;;;;;;2.67;2.00;;;;;20.57;100.00;98604.78;4962196;28;104022;-79
2023/07/17 08:11:09;;;;;;;;;2.00;2.00;;;;;20.65;100.00;98618.00;4954813;28;102489;-79
2023/07/17 08:13:36;;;;;;;;;1.67;1.67;;;;;20.75;100.00;98618.06;4961464;28;102199;-79
2023/07/17 08:16:03;;;;;;;;;3.33;3.33;;;;;20.80;100.00;98609.81;4955577;28;102546;-79
2023/07/17 08:18:30;;;;;;;;;3.00;3.00;;;;;20.93;100.00;98609.38;4959180;28;104590;-79
2023/07/17 08:20:57;;;;;;;;;3.67;3.67;;;;;20.80;100.00;98598.03;4955801;28;102051;-79
2023/07/17 08:23:26;;;;;;;;;4.00;4.00;;;;;21.01;100.00;98608.03;4958877;28;102371;-80
2023/07/17 08:25:53;;;;;;;;;3.00;3.00;;;;;21.10;100.00;98605.59;4957360;28;102001;-80
2023/07/17 08:28:20;;;;;;;;;4.67;3.67;;;;;21.21;100.00;98613.63;4954561;28;104017;-80
2023/07/17 08:30:52;;;;;;;;;3.00;2.33;;;;;21.29;100.00;98606.78;4965016;28;102175;-80
2023/07/17 08:33:20;;;;;;;;;3.67;3.67;;;;;21.29;100.00;98601.28;4958608;28;102025;-80
2023/07/17 08:35:47;;;;;;;;;4.67;4.67;;;;;21.19;100.00;98591.09;4966995;28;102145;-81
2023/07/17 08:38:14;;;;;;;;;4.00;4.00;;;;;21.23;100.00;98599.63;4959891;28;104403;-81
2023/07/17 08:40:41;;;;;;;;;2.67;2.67;;;;;21.34;100.00;98615.88;4958849;28;101981;-81
2023/07/17 08:43:08;;;;;;;;;3.00;3.00;;;;;21.32;100.00;98617.25;4962109;28;102244;-81
2023/07/17 08:45:36;;;;;;;;;4.33;3.67;;;;;21.33;100.00;98625.25;4964194;28;102144;-81
2023/07/17 08:48:04;;;;;;;;;4.00;2.00;;;;;21.15;100.00;98581.72;4947039;28;104275;-81
2023/07/17 08:50:33;;;;;;;;;4.00;2.67;;;;;21.45;100.00;98621.41;4959813;28;102198;-81
2023/07/17 08:53:00;;;;;;;;;3.00;3.00;;;;;21.53;100.00;98634.63;4967925;28;102230;-81
2023/07/17 08:55:29;;;;;;;;;2.00;2.00;;;;;21.47;100.00;98602.72;4959740;28;102400;-81
2023/07/17 08:58:00;;;;;;;;;3.00;3.00;;;;;21.64;100.00;98625.31;4963738;28;103442;-81
2023/07/17 09:00:29;;;;;;;;;2.00;2.00;;;;;21.71;100.00;98628.63;4956198;28;101843;-82
2023/07/17 09:02:57;;;;;;;;;3.00;3.00;;;;;21.74;100.00;98626.19;4964737;28;102050;-82
2023/07/17 09:05:24;;;;;;;;;3.00;3.00;;;;;21.82;100.00;98627.56;4958996;28;102337;-82
2023/07/17 09:07:51;;;;;;;;;3.00;2.00;;;;;21.82;100.00;98630.31;4962781;28;104020;-81
2023/07/17 09:10:22;;;;;;;;;4.00;3.33;;;;;21.86;100.00;98623.16;4964392;28;101928;-84
2023/07/17 09:12:51;;;;;;;;;4.00;4.00;;;;;21.81;100.00;98606.63;4959324;28;102021;-82
2023/07/17 09:15:19;;;;;;;;;4.00;4.00;;;;;21.77;100.00;98597.25;4959946;28;102374;-82
2023/07/17 09:17:46;;;;;;;;;2.00;2.00;;;;;21.91;100.00;98603.06;4960139;28;104345;-82
2023/07/17 09:20:15;;;;;;;;;2.00;2.00;;;;;21.95;100.00;98602.28;4964644;28;102000;-82
2023/07/17 09:22:43;;;;;;;;;3.33;2.00;;;;;22.06;100.00;98592.91;4957527;28;102027;-82
2023/07/17 09:25:13;;;;;;;;;3.00;3.00;;;;;22.22;100.00;98589.03;4965041;28;103073;-83
2023/07/17 09:27:51;;;;;;;;;1.00;1.00;;;;;22.39;100.00;98593.44;4955512;28;103731;-84
2023/07/17 09:30:23;;;;;;;;;2.00;2.00;;;;;22.52;100.00;98587.34;4964478;28;102303;-84
2023/07/17 09:32:50;;;;;;;;;3.00;3.00;;;;;22.72;100.00;98598.38;4958761;28;102036;-87
2023/07/17 09:35:24;;;;;;;;;3.00;3.00;;;;;22.87;100.00;98587.31;4963505;28;102298;-85
2023/07/17 09:37:51;;;;;;;;;5.00;5.00;;;;;23.22;100.00;98608.41;4957786;28;108721;-85
2023/07/17 09:40:19;;;;;;;;;3.00;3.00;;;;;23.41;100.00;98605.81;4962295;28;102012;-86
2023/07/17 09:42:54;;;;;;;;;4.00;4.00;;;;;23.54;100.00;98599.72;4960058;28;102346;-88
2023/07/17 09:45:21;;;;;;;;;4.00;4.00;;;;;23.63;100.00;98586.13;4958435;28;102498;-88
2023/07/17 09:47:51;;;;;;;;;6.00;6.00;;;;;23.71;99.87;98583.59;4963658;28;109530;-89
2023/07/17 09:50:20;;;;;;;;;7.00;6.00;;;;;23.51;98.08;98572.66;4941438;28;102138;-86
2023/07/17 09:52:50;;;;;;;;;5.67;5.67;;;;;23.56;98.12;98569.88;4965499;28;102115;-89
2023/07/17 09:55:20;;;;;;;;;4.67;4.67;;;;;23.52;97.10;98582.59;4959678;28;102274;-91
2023/07/17 09:57:50;;;;;;;;;4.00;4.00;;;;;23.59;98.50;98574.84;4965776;28;108853;-91
2023/07/17 10:00:19;;;;;;;;;7.00;6.67;;;;;23.47;98.11;98558.59;4959165;28;102144;-91
2023/07/17 10:03:09;;;;;;;;;6.00;6.00;;;;;23.42;100.00;98541.22;4964416;28;102502;-92
2023/07/17 10:05:37;;;;;;;;;2.33;2.33;;;;;23.49;100.00;98539.00;4957945;28;102859;-93
2023/07/17 10:08:07;;;;;;;;;4.00;4.00;;;;;23.55;99.22;98530.41;4960888;28;104469;-92
2023/07/17 10:10:36;;;;;;;;;5.00;4.00;;;;;23.63;99.95;98519.88;4956179;28;102581;-93
2023/07/17 10:13:05;;;;;;;;;6.00;5.33;;;;;23.35;99.12;98513.13;4941441;28;102365;-90
2023/07/17 10:15:33;;;;;;;;;10.33;8.67;;;;;23.04;98.05;98520.75;4951308;28;102338;-90
2023/07/17 10:18:00;;;;;;;;;7.00;6.00;;;;;23.13;100.00;98528.16;4959802;28;104075;-93
2023/07/17 10:20:33;;;;;;;;;5.00;4.67;;;;;23.24;100.00;98539.13;4970449;28;102495;-92
2023/07/17 10:23:29;;;;;;;;;4.33;4.33;;;;;23.17;100.00;98544.13;4957485;28;102605;-91
2023/07/17 10:26:10;;;;;;;;;4.00;4.00;;;;;23.12;100.00;98536.72;4961577;28;102515;-92
2023/07/17 10:28:37;;;;;;;;;3.00;3.00;;;;;23.06;100.00;98555.22;4939283;28;104031;-92
2023/07/17 10:31:24;;;;;;;;;3.33;3.33;;;;;22.85;100.00;98548.13;4956058;28;102173;-93
2023/07/17 10:34:01;;;;;;;;;3.00;3.00;;;;;22.78;100.00;98535.78;4937719;28;102335;-89
2023/07/17 10:36:42;;;;;;;;;3.00;3.00;;;;;22.75;100.00;98561.97;4962946;28;102187;-91
2023/07/17 10:39:17;;;;;;;;;3.67;3.33;;;;;22.77;100.00;98581.81;4956703;28;104185;-88
2023/07/17 10:41:44;;;;;;;;;2.00;2.00;;;;;22.73;100.00;98583.47;4962446;28;101996;-89
2023/07/17 10:44:18;;;;;;;;;4.00;4.00;;;;;22.73;100.00;98608.28;4956482;28;102377;-92
2023/07/17 10:46:47;;;;;;;;;2.00;2.00;;;;;22.69;100.00;98601.66;4962768;28;102248;-91
2023/07/17 10:49:16;;;;;;;;;2.00;2.00;;;;;22.60;100.00;98600.56;4957485;28;104000;-87
2023/07/17 10:51:47;;;;;;;;;3.00;3.00;;;;;22.47;100.00;98601.16;4957898;28;102366;-88
2023/07/17 10:54:17;;;;;;;;;4.67;4.33;;;;;22.31;100.00;98588.47;4958407;28;102396;-88
2023/07/17 10:56:47;;;;;;;;;3.00;3.00;;;;;22.14;100.00;98575.84;4943462;28;102725;-89
2023/07/17 10:59:18;;;;;;;;;5.33;4.00;;;;;21.90;100.00;98563.69;4962016;28;104339;-87
2023/07/17 11:01:46;;;;;;;;;3.00;3.00;;;;;21.90;100.00;98560.94;4959706;28;102424;-90
2023/07/17 11:04:13;;;;;;;;;3.67;3.33;;;;;21.80;100.00;98560.91;4960448;28;102169;-87
2023/07/17 11:06:40;;;;;;;;;6.00;6.00;;;;;21.69;100.00;98579.38;4955318;28;102092;-88
2023/07/17 11:09:09;;;;;;;;;4.00;4.00;;;;;21.61;100.00;98584.59;4959338;28;104046;-89
2023/07/17 11:11:35;;;;;;;;;4.33;4.33;;;;;21.51;100.00;98585.41;4956824;28;102726;-89
2023/07/17 11:14:05;;;;;;;;;4.00;4.00;;;;;21.45;100.00;98588.38;4959800;28;102030;-89
2023/07/17 11:16:32;;;;;;;;;3.67;3.00;;;;;21.44;100.00;98606.81;4959502;28;102467;-88
2023/07/17 11:19:03;;;;;;;;;4.00;4.00;;;;;21.39;100.00;98606.00;4959748;28;104117;-89